Time;durP1;ratioP1;P1;durP2;ratioP2;P2;SDS_P1;SDS_P2;PMS_P1;PMS_P2;Temp;Humidity;BMP_temperature;BMP_pressure;BME280_temperature;BME280_humidity;BME280_pressure;Samples;Min_cycle;Max_cycle;Signal;HPM_P1;HPM_P2
2024/02/16 00:02:23;;;;;;;89.85;60.30;;;;;;;;;;4967735;28;20031;-47
2024/02/16 00:04:49;;;;;;;94.65;59.55;;;;;;;;;;4973020;28;20030;-49
2024/02/16 00:07:16;;;;;;;94.03;61.25;;;;;;;;;;4955828;28;20034;-50
2024/02/16 00:09:42;;;;;;;95.22;62.33;;;;;;;;;;4955527;28;20102;-49
2024/02/16 00:12:08;;;;;;;89.20;60.47;;;;;;;;;;4985449;28;20038;-50
2024/02/16 00:14:34;;;;;;;91.20;60.38;;;;;;;;;;4969520;28;20372;-50
2024/02/16 00:17:01;;;;;;;93.50;59.43;;;;;;;;;;4970593;28;20514;-48
2024/02/16 00:19:27;;;;;;;83.00;54.57;;;;;;;;;;4971444;28;20278;-50
2024/02/16 00:21:54;;;;;;;87.78;57.53;;;;;;;;;;4973293;28;20118;-47
2024/02/16 00:24:20;;;;;;;92.30;59.47;;;;;;;;;;4973317;28;20391;-47
2024/02/16 00:26:46;;;;;;;84.45;55.60;;;;;;;;;;4960376;28;20054;-47
2024/02/16 00:29:13;;;;;;;81.15;53.63;;;;;;;;;;4965422;28;20031;-48
2024/02/16 00:31:39;;;;;;;86.50;57.77;;;;;;;;;;4964928;28;20183;-47
2024/02/16 00:34:05;;;;;;;86.05;54.70;;;;;;;;;;4967700;28;20046;-47
2024/02/16 00:36:34;;;;;;;81.38;55.33;;;;;;;;;;4984792;28;20110;-49
2024/02/16 00:39:00;;;;;;;78.07;50.75;;;;;;;;;;4953960;28;20267;-49
2024/02/16 00:41:26;;;;;;;84.60;54.83;;;;;;;;;;4953894;28;20126;-49
2024/02/16 00:43:52;;;;;;;81.88;53.30;;;;;;;;;;4956580;28;20110;-49
2024/02/16 00:46:19;;;;;;;82.80;53.63;;;;;;;;;;4962644;28;20027;-49
2024/02/16 00:48:46;;;;;;;79.27;50.63;;;;;;;;;;4968889;28;20102;-50
2024/02/16 00:51:12;;;;;;;;;;;;;;;;;;4973021;28;20057;-49
2024/02/16 00:53:38;;;;;;;77.70;50.35;;;;;;;;;;4971456;28;19910;-51
2024/02/16 00:56:05;;;;;;;76.38;52.25;;;;;;;;;;4955725;28;20035;-49
2024/02/16 00:58:31;;;;;;;80.20;51.90;;;;;;;;;;4953634;28;20042;-48
2024/02/16 01:00:57;;;;;;;79.47;53.97;;;;;;;;;;4960472;28;20033;-50
2024/02/16 01:03:25;;;;;;;78.95;53.05;;;;;;;;;;4971297;28;20099;-49
2024/02/16 01:05:51;;;;;;;90.53;55.40;;;;;;;;;;4970850;28;20451;-52
2024/02/16 01:08:17;;;;;;;84.38;55.88;;;;;;;;;;4969619;28;20046;-49
2024/02/16 01:10:43;;;;;;;86.23;57.30;;;;;;;;;;4953642;28;20027;-49
2024/02/16 01:13:10;;;;;;;73.88;52.03;;;;;;;;;;4954534;28;20118;-49
2024/02/16 01:15:41;;;;;;;77.97;54.53;;;;;;;;;;4965477;28;20492;-49
2024/02/16 01:18:07;;;;;;;80.40;54.88;;;;;;;;;;4959392;28;20093;-49
2024/02/16 01:20:33;;;;;;;81.38;54.85;;;;;;;;;;4953595;28;20031;-48
2024/02/16 01:22:59;;;;;;;75.63;51.53;;;;;;;;;;4954353;28;20448;-49
2024/02/16 01:25:26;;;;;;;76.28;52.63;;;;;;;;;;4963831;28;20507;-48
2024/02/16 01:27:52;;;;;;;75.47;52.42;;;;;;;;;;4952248;29;20037;-50
2024/02/16 01:30:19;;;;;;;73.47;51.40;;;;;;;;;;4966467;28;20034;-49
2024/02/16 01:32:46;;;;;;;67.50;44.17;;;;;;;;;;4974470;28;20042;-49
2024/02/16 01:35:14;;;;;;;66.18;43.67;;;;;;;;;;4972786;28;20035;-49
2024/02/16 01:37:43;;;;;;;63.05;43.05;;;;;;;;;;4976218;28;20035;-48
2024/02/16 01:40:14;;;;;;;57.30;42.90;;;;;;;;;;4976007;28;20403;-49
2024/02/16 01:42:41;;;;;;;59.65;41.33;;;;;;;;;;4967341;28;20033;-50
2024/02/16 01:45:09;;;;;;;64.22;44.25;;;;;;;;;;4987728;28;20657;-49
2024/02/16 01:47:35;;;;;;;72.18;49.00;;;;;;;;;;4976008;28;20030;-50
2024/02/16 01:50:02;;;;;;;66.97;45.10;;;;;;;;;;4973118;28;20081;-49
2024/02/16 01:52:30;;;;;;;66.25;45.25;;;;;;;;;;4971805;28;20070;-50
2024/02/16 01:54:57;;;;;;;58.25;41.55;;;;;;;;;;4970080;28;20039;-49
2024/02/16 01:57:24;;;;;;;69.25;46.95;;;;;;;;;;4972721;28;20110;-49
2024/02/16 01:59:50;;;;;;;60.22;43.50;;;;;;;;;;4969559;28;20027;-49
2024/02/16 02:02:16;;;;;;;59.33;41.95;;;;;;;;;;4962308;28;20057;-49
2024/02/16 02:04:43;;;;;;;62.10;45.20;;;;;;;;;;4974706;28;20046;-49
2024/02/16 02:07:16;;;;;;;63.45;44.33;;;;;;;;;;4967195;28;20426;-49
2024/02/16 02:09:42;;;;;;;59.60;43.83;;;;;;;;;;4956560;28;20030;-49
2024/02/16 02:12:09;;;;;;;59.05;45.55;;;;;;;;;;4987698;28;20122;-49
2024/02/16 02:14:37;;;;;;;136.88;51.42;;;;;;;;;;4956468;28;20062;-49
2024/02/16 02:17:04;;;;;;;256.23;57.13;;;;;;;;;;4956255;28;20035;-50
2024/02/16 02:19:30;;;;;;;206.05;57.13;;;;;;;;;;4966167;28;20465;-49
2024/02/16 02:21:57;;;;;;;110.18;47.33;;;;;;;;;;4974299;28;20122;-49
2024/02/16 02:24:23;;;;;;;87.15;49.97;;;;;;;;;;4975845;28;20502;-50
2024/02/16 02:26:49;;;;;;;59.53;43.13;;;;;;;;;;4975456;28;20026;-49
2024/02/16 02:29:15;;;;;;;63.60;43.50;;;;;;;;;;4975620;28;20035;-48
2024/02/16 02:31:42;;;;;;;68.40;45.13;;;;;;;;;;4974506;28;20085;-49
2024/02/16 02:34:08;;;;;;;111.78;48.22;;;;;;;;;;4975346;28;20086;-49
2024/02/16 02:36:34;;;;;;;70.03;44.43;;;;;;;;;;4975349;28;20049;-49
2024/02/16 02:39:03;;;;;;;69.20;47.47;;;;;;;;;;4975459;28;20042;-49
2024/02/16 02:41:30;;;;;;;68.95;49.45;;;;;;;;;;4957041;28;20041;-49
2024/02/16 02:43:56;;;;;;;63.83;43.13;;;;;;;;;;4975313;28;20057;-49
2024/02/16 02:46:23;;;;;;;61.13;43.45;;;;;;;;;;4975288;28;20034;-49
2024/02/16 02:48:51;;;;;;;59.28;42.05;;;;;;;;;;4973931;28;20030;-49
2024/02/16 02:51:17;;;;;;;73.15;49.85;;;;;;;;;;4973863;28;20062;-49
2024/02/16 02:53:43;;;;;;;73.70;52.13;;;;;;;;;;4973692;28;20121;-49
2024/02/16 02:56:10;;;;;;;62.78;45.42;;;;;;;;;;4962912;28;20031;-48
2024/02/16 02:58:36;;;;;;;58.15;40.80;;;;;;;;;;4956077;28;20378;-49
2024/02/16 03:01:02;;;;;;;52.65;39.92;;;;;;;;;;4955671;28;20039;-49
2024/02/16 03:03:29;;;;;;;56.20;40.45;;;;;;;;;;4966460;28;20373;-49
2024/02/16 03:05:55;;;;;;;58.47;41.67;;;;;;;;;;4985164;28;20085;-49
2024/02/16 03:08:21;;;;;;;55.33;41.92;;;;;;;;;;4969554;28;20035;-48
2024/02/16 03:10:48;;;;;;;68.75;47.13;;;;;;;;;;4970706;28;20031;-50
2024/02/16 03:13:17;;;;;;;64.47;44.93;;;;;;;;;;4963956;28;20027;-52
2024/02/16 03:15:44;;;;;;;68.13;48.72;;;;;;;;;;4973313;28;20034;-51
2024/02/16 03:18:10;;;;;;;70.53;50.63;;;;;;;;;;4959826;28;20086;-51
2024/02/16 03:20:37;;;;;;;71.43;49.93;;;;;;;;;;4954324;29;20484;-52
2024/02/16 03:23:03;;;;;;;66.38;48.03;;;;;;;;;;4954198;29;20035;-52
2024/02/16 03:25:29;;;;;;;61.70;44.73;;;;;;;;;;4955070;28;20027;-50
2024/02/16 03:27:56;;;;;;;73.18;50.53;;;;;;;;;;4955239;28;20504;-49
2024/02/16 03:30:22;;;;;;;63.90;44.55;;;;;;;;;;4967539;28;20027;-49
2024/02/16 03:32:50;;;;;;;82.78;48.10;;;;;;;;;;4974619;28;20495;-49
2024/02/16 03:35:17;;;;;;;82.07;44.20;;;;;;;;;;4972992;28;20034;-51
2024/02/16 03:37:43;;;;;;;61.22;43.03;;;;;;;;;;4973130;28;20100;-52
2024/02/16 03:40:12;;;;;;;61.50;44.05;;;;;;;;;;4957006;28;20070;-51
2024/02/16 03:42:39;;;;;;;79.95;44.33;;;;;;;;;;4974237;28;20065;-50
2024/02/16 03:45:06;;;;;;;71.95;43.15;;;;;;;;;;4972554;28;20031;-50
2024/02/16 03:47:32;;;;;;;45.55;37.22;;;;;;;;;;4974117;28;20109;-52
2024/02/16 03:49:58;;;;;;;50.38;40.25;;;;;;;;;;4974133;28;20476;-50
2024/02/16 03:52:25;;;;;;;51.08;39.35;;;;;;;;;;4972412;28;20234;-52
2024/02/16 03:54:51;;;;;;;50.55;39.40;;;;;;;;;;4970421;28;20491;-51
2024/02/16 03:57:17;;;;;;;47.55;37.72;;;;;;;;;;4954706;28;20031;-52
2024/02/16 03:59:44;;;;;;;51.37;38.20;;;;;;;;;;4972359;28;20030;-50
2024/02/16 04:02:10;;;;;;;49.80;38.70;;;;;;;;;;4962454;28;20118;-50
2024/02/16 04:04:36;;;;;;;48.45;39.22;;;;;;;;;;4972933;28;20034;-52
2024/02/16 04:07:03;;;;;;;57.42;41.17;;;;;;;;;;4973659;28;20019;-50
2024/02/16 04:09:29;;;;;;;49.10;37.50;;;;;;;;;;4962363;28;20023;-50
2024/02/16 04:11:55;;;;;;;52.58;39.53;;;;;;;;;;4966767;28;20081;-51
2024/02/16 04:14:32;;;;;;;49.50;37.58;;;;;;;;;;4964957;28;20027;-52
2024/02/16 04:16:59;;;;;;;53.85;39.22;;;;;;;;;;4972371;28;20030;-49
2024/02/16 04:19:26;;;;;;;40.30;35.07;;;;;;;;;;4967932;28;20385;-49
2024/02/16 04:21:52;;;;;;;;;;;;;;;;;;4954765;28;20455;-49
2024/02/16 04:24:18;;;;;;;41.63;33.33;;;;;;;;;;4952903;28;19911;-52
2024/02/16 04:26:45;;;;;;;40.83;33.33;;;;;;;;;;4984897;28;20039;-49
2024/02/16 04:29:11;;;;;;;119.83;44.27;;;;;;;;;;4954216;28;20038;-51
2024/02/16 04:31:42;;;;;;;133.15;43.13;;;;;;;;;;4958401;28;20262;-52
2024/02/16 04:34:08;;;;;;;86.85;41.60;;;;;;;;;;4953961;28;20035;-49
2024/02/16 04:36:35;;;;;;;87.97;42.65;;;;;;;;;;4984999;28;20067;-52
2024/02/16 04:39:01;;;;;;;115.00;43.47;;;;;;;;;;4967876;28;20038;-49
2024/02/16 04:41:28;;;;;;;136.65;48.47;;;;;;;;;;4971392;28;20107;-49
2024/02/16 04:43:54;;;;;;;106.10;48.10;;;;;;;;;;4963018;28;20027;-51
2024/02/16 04:46:21;;;;;;;103.20;47.50;;;;;;;;;;4969608;28;20050;-51
2024/02/16 04:48:47;;;;;;;175.10;55.13;;;;;;;;;;4971593;28;20027;-51
2024/02/16 04:51:13;;;;;;;125.00;53.42;;;;;;;;;;4973156;28;20484;-53
2024/02/16 04:53:40;;;;;;;56.45;42.25;;;;;;;;;;4963375;28;20072;-48
2024/02/16 04:56:06;;;;;;;72.53;41.55;;;;;;;;;;4986964;28;20038;-49
2024/02/16 04:58:32;;;;;;;52.10;39.43;;;;;;;;;;4961636;28;20477;-49
2024/02/16 05:00:58;;;;;;;50.90;40.17;;;;;;;;;;4953015;28;20428;-48
2024/02/16 05:03:25;;;;;;;63.15;40.55;;;;;;;;;;4983976;28;20019;-52
2024/02/16 05:05:52;;;;;;;115.75;45.67;;;;;;;;;;4952468;28;20036;-50
2024/02/16 05:08:18;;;;;;;;;;;;;;;;;;4952303;28;20470;-51
2024/02/16 05:10:44;;;;;;;55.15;38.63;;;;;;;;;;4951932;28;20001;-50
2024/02/16 05:13:11;;;;;;;97.13;40.35;;;;;;;;;;4951945;28;20046;-49
2024/02/16 05:15:38;;;;;;;92.38;42.35;;;;;;;;;;4951808;28;20024;-51
2024/02/16 05:18:04;;;;;;;103.72;43.15;;;;;;;;;;4952233;28;20031;-51
2024/02/16 05:20:30;;;;;;;107.83;45.00;;;;;;;;;;4950953;29;20043;-50
2024/02/16 05:22:56;;;;;;;90.95;43.88;;;;;;;;;;4953076;28;20282;-51
2024/02/16 05:25:23;;;;;;;123.97;43.67;;;;;;;;;;4952021;29;20035;-50
2024/02/16 05:27:49;;;;;;;82.07;43.83;;;;;;;;;;4953535;28;20034;-48
2024/02/16 05:30:16;;;;;;;67.85;45.28;;;;;;;;;;4953571;28;20027;-50
2024/02/16 05:32:42;;;;;;;60.37;43.13;;;;;;;;;;4952295;28;20027;-51
2024/02/16 05:35:13;;;;;;;45.80;31.58;;;;;;;;;;4953322;28;20271;-49
2024/02/16 05:37:40;;;;;;;130.20;45.15;;;;;;;;;;4953375;28;20039;-51
2024/02/16 05:40:21;;;;;;;119.93;46.22;;;;;;;;;;4953438;28;20110;-50
2024/02/16 05:42:47;;;;;;;85.43;42.13;;;;;;;;;;4953340;28;20035;-48
2024/02/16 05:45:14;;;;;;;94.03;43.22;;;;;;;;;;4953193;28;20019;-51
2024/02/16 05:47:42;;;;;;;106.20;45.15;;;;;;;;;;4952247;29;20529;-49
2024/02/16 05:50:09;;;;;;;66.25;44.97;;;;;;;;;;4953509;28;20478;-49
2024/02/16 05:52:36;;;;;;;63.67;42.75;;;;;;;;;;4984321;28;20068;-49
2024/02/16 05:55:04;;;;;;;59.63;44.58;;;;;;;;;;4951839;29;20471;-52
2024/02/16 05:57:30;;;;;;;61.83;44.97;;;;;;;;;;4953122;28;20046;-49
2024/02/16 05:59:56;;;;;;;54.30;42.00;;;;;;;;;;4953340;28;20035;-50
2024/02/16 06:02:25;;;;;;;54.50;40.17;;;;;;;;;;4953179;28;20042;-49
2024/02/16 06:04:52;;;;;;;57.08;40.50;;;;;;;;;;4952940;28;20078;-52
2024/02/16 06:07:18;;;;;;;56.70;42.05;;;;;;;;;;4953069;28;20485;-48
2024/02/16 06:09:44;;;;;;;57.88;42.53;;;;;;;;;;4953201;28;20023;-50
2024/02/16 06:12:12;;;;;;;53.95;41.05;;;;;;;;;;4951934;29;20039;-49
2024/02/16 06:14:39;;;;;;;61.72;46.03;;;;;;;;;;4953030;28;20039;-48
2024/02/16 06:17:05;;;;;;;57.80;42.77;;;;;;;;;;4952678;28;20042;-49
2024/02/16 06:19:31;;;;;;;55.58;41.65;;;;;;;;;;4956541;28;20505;-49
2024/02/16 06:21:58;;;;;;;59.23;41.67;;;;;;;;;;4987534;28;20058;-48
2024/02/16 06:24:24;;;;;;;54.10;41.57;;;;;;;;;;4987403;28;20118;-49
2024/02/16 06:26:51;;;;;;;57.67;43.70;;;;;;;;;;4956223;28;20329;-49
2024/02/16 06:29:19;;;;;;;;;;;;;;;;;;4956784;28;20114;-48
2024/02/16 06:31:47;;;;;;;63.40;41.93;;;;;;;;;;4956156;28;19911;-49
2024/02/16 06:34:14;;;;;;;52.97;39.05;;;;;;;;;;4956122;28;20428;-48
2024/02/16 06:36:40;;;;;;;56.17;39.58;;;;;;;;;;4956071;28;20031;-50
2024/02/16 06:39:06;;;;;;;58.63;41.33;;;;;;;;;;4956105;28;20042;-48
2024/02/16 06:41:33;;;;;;;55.77;42.70;;;;;;;;;;4956084;28;20039;-52
2024/02/16 06:43:59;;;;;;;54.45;39.88;;;;;;;;;;4955974;28;20090;-52
2024/02/16 06:46:27;;;;;;;55.03;40.78;;;;;;;;;;4955725;28;20147;-48
2024/02/16 06:48:56;;;;;;;60.83;41.60;;;;;;;;;;4955909;28;20484;-50
2024/02/16 06:51:23;;;;;;;61.28;44.22;;;;;;;;;;4955876;28;20054;-49
2024/02/16 06:53:49;;;;;;;;;;;;;;;;;;4954771;29;20455;-48
2024/02/16 06:56:15;;;;;;;67.65;47.10;;;;;;;;;;4956173;28;19923;-50
2024/02/16 06:58:41;;;;;;;75.18;48.08;;;;;;;;;;4955740;28;20381;-51
2024/02/16 07:01:08;;;;;;;76.88;52.17;;;;;;;;;;4955684;28;20620;-48
2024/02/16 07:03:38;;;;;;;89.68;51.88;;;;;;;;;;4955688;28;20038;-47
2024/02/16 07:06:07;;;;;;;73.82;51.28;;;;;;;;;;4986670;28;20031;-48
2024/02/16 07:08:34;;;;;;;108.95;55.13;;;;;;;;;;4955512;28;20448;-48
2024/02/16 07:11:02;;;;;;;;;;;;;;;;;;4956012;28;20231;-48
2024/02/16 07:13:29;;;;;;;;;;;;;;;;;;4955874;28;19910;-47
2024/02/16 07:15:55;;;;;;;138.68;63.53;;;;;;;;;;4955467;28;20001;-48
2024/02/16 07:18:21;;;;;;;125.50;59.63;;;;;;;;;;4955451;28;20508;-48
2024/02/16 07:20:48;;;;;;;102.55;61.55;;;;;;;;;;4954261;29;20041;-47
2024/02/16 07:23:15;;;;;;;132.60;63.33;;;;;;;;;;4955284;28;20027;-47
2024/02/16 07:25:41;;;;;;;;;;;;;;;;;;4955482;28;20412;-47
2024/02/16 07:28:08;;;;;;;100.75;61.92;;;;;;;;;;4954670;28;19917;-49
2024/02/16 07:30:38;;;;;;;139.98;73.53;;;;;;;;;;4937971;28;20078;-49
2024/02/16 07:33:05;;;;;;;87.63;62.92;;;;;;;;;;4953983;29;20416;-51
2024/02/16 07:35:31;;;;;;;;;;;;;;;;;;4955238;28;20035;-48
2024/02/16 07:37:57;;;;;;;126.43;71.57;;;;;;;;;;4969757;28;19910;-50
2024/02/16 07:40:23;;;;;;;109.10;73.15;;;;;;;;;;4953578;29;20043;-47
2024/02/16 07:42:50;;;;;;;100.43;70.35;;;;;;;;;;4954678;28;20064;-48
2024/02/16 07:45:16;;;;;;;98.32;70.63;;;;;;;;;;4954667;28;20519;-48
2024/02/16 07:47:42;;;;;;;103.35;72.15;;;;;;;;;;4954832;28;20089;-52
2024/02/16 07:50:09;;;;;;;112.90;77.27;;;;;;;;;;4953771;29;20106;-48
2024/02/16 07:52:35;;;;;;;108.97;73.68;;;;;;;;;;4954696;28;20034;-47
2024/02/16 07:55:01;;;;;;;108.27;76.67;;;;;;;;;;4953282;29;20049;-48
2024/02/16 07:57:27;;;;;;;109.00;76.80;;;;;;;;;;4953527;28;20314;-47
2024/02/16 07:59:54;;;;;;;110.75;77.90;;;;;;;;;;4954727;28;20039;-49
2024/02/16 08:02:20;;;;;;;113.82;77.57;;;;;;;;;;4954715;28;20034;-49
2024/02/16 08:04:50;;;;;;;121.68;77.88;;;;;;;;;;4953256;28;20035;-48
2024/02/16 08:07:19;;;;;;;119.00;77.70;;;;;;;;;;4954332;28;20110;-48
2024/02/16 08:09:48;;;;;;;115.00;76.60;;;;;;;;;;4954845;28;20081;-48
2024/02/16 08:12:15;;;;;;;125.47;81.68;;;;;;;;;;4953215;29;20039;-48
2024/02/16 08:14:42;;;;;;;130.45;82.13;;;;;;;;;;4953072;29;20043;-48
2024/02/16 08:17:08;;;;;;;121.28;76.70;;;;;;;;;;4954249;28;20035;-49
2024/02/16 08:20:06;;;;;;;118.45;77.38;;;;;;;;;;4953185;29;20468;-49
2024/02/16 08:22:32;;;;;;;127.25;83.30;;;;;;;;;;4954089;28;20047;-48
2024/02/16 08:24:59;;;;;;;119.57;81.47;;;;;;;;;;4985142;28;20035;-48
2024/02/16 08:27:25;;;;;;;124.45;82.18;;;;;;;;;;4954076;28;20452;-48
2024/02/16 08:29:51;;;;;;;114.13;78.70;;;;;;;;;;4937174;29;20452;-48
2024/02/16 08:32:20;;;;;;;127.18;84.05;;;;;;;;;;4954134;28;20035;-48
2024/02/16 08:34:48;;;;;;;133.52;87.68;;;;;;;;;;4953805;28;20039;-66
2024/02/16 08:37:14;;;;;;;143.30;85.93;;;;;;;;;;4952662;29;20037;-66
2024/02/16 08:39:41;;;;;;;113.32;75.57;;;;;;;;;;4953365;28;20039;-49
2024/02/16 08:42:13;;;;;;;114.20;77.53;;;;;;;;;;4953876;28;20039;-50
2024/02/16 08:44:40;;;;;;;104.47;71.95;;;;;;;;;;4953901;29;20294;-49
2024/02/16 08:47:09;;;;;;;117.95;75.40;;;;;;;;;;4953679;28;20027;-50
2024/02/16 08:49:36;;;;;;;101.05;71.45;;;;;;;;;;4952632;29;20090;-50
2024/02/16 08:52:02;;;;;;;101.35;73.72;;;;;;;;;;4952550;29;20110;-49
2024/02/16 08:54:29;;;;;;;105.43;72.07;;;;;;;;;;4953604;28;20505;-49
2024/02/16 08:56:55;;;;;;;109.32;74.80;;;;;;;;;;4953634;28;20126;-51
2024/02/16 08:59:21;;;;;;;110.82;76.05;;;;;;;;;;4953772;28;20050;-50
2024/02/16 09:01:48;;;;;;;101.53;75.40;;;;;;;;;;4953513;28;20122;-50
2024/02/16 09:04:15;;;;;;;99.82;70.90;;;;;;;;;;4984537;28;20258;-48
2024/02/16 09:06:42;;;;;;;93.47;68.63;;;;;;;;;;4952209;29;20035;-50
2024/02/16 09:09:08;;;;;;;99.57;70.90;;;;;;;;;;4953712;28;20124;-51
2024/02/16 09:11:34;;;;;;;110.93;79.33;;;;;;;;;;4952522;29;20043;-49
2024/02/16 09:14:00;;;;;;;117.03;83.13;;;;;;;;;;4953552;28;20086;-49
2024/02/16 09:16:27;;;;;;;112.77;81.13;;;;;;;;;;4953352;28;20448;-52
2024/02/16 09:18:53;;;;;;;109.53;78.18;;;;;;;;;;4953577;28;20569;-50
2024/02/16 09:21:19;;;;;;;114.85;79.13;;;;;;;;;;4953493;28;20031;-48
2024/02/16 09:23:45;;;;;;;105.20;77.07;;;;;;;;;;4953455;28;20082;-48
2024/02/16 09:26:12;;;;;;;109.28;76.03;;;;;;;;;;4952334;29;20334;-49
2024/02/16 09:28:41;;;;;;;116.60;81.20;;;;;;;;;;4984430;28;20027;-50
2024/02/16 09:31:11;;;;;;;114.63;78.07;;;;;;;;;;4953357;28;20221;-49
2024/02/16 09:33:37;;;;;;;110.20;75.03;;;;;;;;;;4984408;28;20031;-49
2024/02/16 09:36:04;;;;;;;114.43;78.63;;;;;;;;;;4953169;28;20027;-49
2024/02/16 09:38:31;;;;;;;110.05;76.65;;;;;;;;;;4953419;28;20502;-49
2024/02/16 09:40:58;;;;;;;;;;;;;;;;;;4953824;28;20396;-50
2024/02/16 09:43:28;;;;;;;116.20;78.38;;;;;;;;;;4951952;28;19915;-49
2024/02/16 09:45:55;;;;;;;116.20;80.60;;;;;;;;;;4953091;28;20034;-50
2024/02/16 09:48:21;;;;;;;;;;;;;;;;;;4953766;28;20496;-51
2024/02/16 09:50:48;;;;;;;114.68;77.55;;;;;;;;;;4954270;28;19910;-49
2024/02/16 09:53:14;;;;;;;116.15;79.28;;;;;;;;;;4957080;28;20062;-51
2024/02/16 09:55:42;;;;;;;116.70;81.23;;;;;;;;;;4956684;28;20518;-50
2024/02/16 09:58:08;;;;;;;;;;;;;;;;;;4957225;28;20031;-48
2024/02/16 10:00:34;;;;;;;120.78;81.53;;;;;;;;;;4956873;28;19933;-50
2024/02/16 10:03:00;;;;;;;124.78;83.97;;;;;;;;;;4956815;28;20543;-50
2024/02/16 10:05:27;;;;;;;111.78;80.00;;;;;;;;;;4956774;28;20400;-49
2024/02/16 10:07:53;;;;;;;114.47;81.10;;;;;;;;;;4955587;29;20031;-48
2024/02/16 10:10:23;;;;;;;112.07;81.80;;;;;;;;;;4956737;28;20298;-49
2024/02/16 10:12:49;;;;;;;114.80;82.75;;;;;;;;;;4956573;28;20042;-49
2024/02/16 10:15:23;;;;;;;112.97;80.78;;;;;;;;;;4956276;28;20063;-48
2024/02/16 10:17:58;;;;;;;124.18;84.55;;;;;;;;;;4956521;28;20082;-50
2024/02/16 10:20:25;;;;;;;116.43;83.78;;;;;;;;;;4955269;29;20034;-51
2024/02/16 10:23:02;;;;;;;121.13;81.32;;;;;;;;;;4955322;29;20230;-49
2024/02/16 10:25:28;;;;;;;108.53;79.43;;;;;;;;;;4956412;28;20046;-50
2024/02/16 10:27:55;;;;;;;118.35;80.28;;;;;;;;;;4956612;28;20102;-49
2024/02/16 10:30:23;;;;;;;109.15;77.97;;;;;;;;;;4987390;28;20035;-50
2024/02/16 10:32:49;;;;;;;113.40;80.30;;;;;;;;;;4956467;28;20036;-51
2024/02/16 10:35:16;;;;;;;114.18;80.53;;;;;;;;;;4955981;28;20102;-50
2024/02/16 10:37:43;;;;;;;107.43;78.07;;;;;;;;;;4987084;28;20035;-48
2024/02/16 10:40:13;;;;;;;117.32;81.82;;;;;;;;;;4956152;28;20118;-48
2024/02/16 10:42:40;;;;;;;107.13;79.40;;;;;;;;;;4954842;29;20038;-50
2024/02/16 10:45:07;;;;;;;110.40;81.00;;;;;;;;;;4955908;28;20166;-50
2024/02/16 10:47:33;;;;;;;113.05;81.45;;;;;;;;;;4956014;28;20034;-51
2024/02/16 10:49:59;;;;;;;110.95;82.03;;;;;;;;;;4955878;28;20042;-49
2024/02/16 10:52:26;;;;;;;107.73;80.27;;;;;;;;;;4955901;28;20027;-49
2024/02/16 10:54:52;;;;;;;110.00;78.87;;;;;;;;;;4954482;28;20047;-49
2024/02/16 10:57:18;;;;;;;109.00;78.82;;;;;;;;;;4955790;28;20042;-49
2024/02/16 10:59:46;;;;;;;113.05;77.32;;;;;;;;;;4955860;28;20095;-48
2024/02/16 11:02:12;;;;;;;112.93;81.40;;;;;;;;;;4955085;28;20031;-50
2024/02/16 11:04:39;;;;;;;109.80;80.80;;;;;;;;;;4955297;28;20031;-50
2024/02/16 11:07:18;;;;;;;115.47;86.10;;;;;;;;;;4938294;28;20031;-49
2024/02/16 11:09:45;;;;;;;114.65;84.55;;;;;;;;;;4955612;28;20035;-50
2024/02/16 11:12:15;;;;;;;117.13;85.35;;;;;;;;;;4956442;28;20031;-50
2024/02/16 11:14:45;;;;;;;114.20;81.03;;;;;;;;;;4965146;28;20035;-49
2024/02/16 11:17:11;;;;;;;114.85;82.93;;;;;;;;;;4957002;28;20046;-50
2024/02/16 11:19:38;;;;;;;120.35;84.22;;;;;;;;;;4954738;28;20106;-50
2024/02/16 11:22:12;;;;;;;116.10;86.05;;;;;;;;;;4953899;28;20042;-49
2024/02/16 11:24:46;;;;;;;117.28;84.80;;;;;;;;;;4952012;29;20027;-51
2024/02/16 11:27:12;;;;;;;115.55;84.43;;;;;;;;;;4934383;29;20110;-48
2024/02/16 11:29:39;;;;;;;114.18;84.65;;;;;;;;;;4952161;29;20445;-50
2024/02/16 11:32:06;;;;;;;111.68;82.47;;;;;;;;;;4952575;29;20034;-49
2024/02/16 11:34:33;;;;;;;109.85;81.18;;;;;;;;;;4968676;28;20512;-53
2024/02/16 11:36:59;;;;;;;;;;;;;;;;;;4954888;28;20074;-50
2024/02/16 11:39:26;;;;;;;109.63;84.53;;;;;;;;;;4953818;28;19911;-54
2024/02/16 11:42:01;;;;;;;111.93;81.15;;;;;;;;;;4953337;28;20111;-52
2024/02/16 11:44:29;;;;;;;115.75;84.47;;;;;;;;;;4952802;28;20028;-51
2024/02/16 11:46:55;;;;;;;116.60;83.53;;;;;;;;;;4967065;28;20571;-54
2024/02/16 11:49:21;;;;;;;115.93;83.70;;;;;;;;;;4968757;28;20035;-51
2024/02/16 11:51:48;;;;;;;119.00;83.27;;;;;;;;;;4969908;28;20078;-53
2024/02/16 11:54:15;;;;;;;109.17;77.23;;;;;;;;;;4959298;28;20310;-50
2024/02/16 11:56:51;;;;;;;118.47;85.50;;;;;;;;;;4934226;28;20291;-52
2024/02/16 11:59:18;;;;;;;114.57;84.13;;;;;;;;;;4954361;28;20523;-51
2024/02/16 12:01:52;;;;;;;112.47;84.63;;;;;;;;;;4961055;28;20404;-51
2024/02/16 12:04:22;;;;;;;113.43;86.72;;;;;;;;;;4972314;28;20046;-48
2024/02/16 12:06:50;;;;;;;114.10;83.75;;;;;;;;;;4972248;28;20045;-53
2024/02/16 12:09:17;;;;;;;110.95;83.43;;;;;;;;;;4957358;28;20032;-50
2024/02/16 12:11:43;;;;;;;117.10;85.30;;;;;;;;;;4952931;29;20183;-52
2024/02/16 12:14:10;;;;;;;108.70;83.28;;;;;;;;;;4949471;28;20500;-49
2024/02/16 12:16:38;;;;;;;115.28;85.40;;;;;;;;;;4963989;28;20113;-49
2024/02/16 12:19:10;;;;;;;112.38;83.20;;;;;;;;;;4931444;28;20063;-49
2024/02/16 12:21:38;;;;;;;118.53;86.57;;;;;;;;;;4962256;28;20050;-49
2024/02/16 12:24:05;;;;;;;108.93;82.97;;;;;;;;;;4969843;28;20031;-49
2024/02/16 12:26:31;;;;;;;110.60;83.72;;;;;;;;;;4962445;28;20023;-49
2024/02/16 12:28:57;;;;;;;113.07;84.90;;;;;;;;;;4952583;28;20062;-51
2024/02/16 12:31:26;;;;;;;107.30;81.27;;;;;;;;;;4961089;28;20027;-52
2024/02/16 12:33:52;;;;;;;117.70;82.18;;;;;;;;;;4984186;28;20039;-51
2024/02/16 12:36:18;;;;;;;109.30;82.47;;;;;;;;;;4968707;28;20400;-49
2024/02/16 12:38:45;;;;;;;112.97;81.63;;;;;;;;;;4962212;28;20688;-49
2024/02/16 12:41:11;;;;;;;105.25;78.00;;;;;;;;;;4936440;28;20632;-49
2024/02/16 12:43:37;;;;;;;107.53;79.07;;;;;;;;;;4953551;28;20019;-48
2024/02/16 12:46:05;;;;;;;97.20;76.38;;;;;;;;;;4960158;28;20274;-49
2024/02/16 12:48:31;;;;;;;92.20;72.53;;;;;;;;;;4954049;28;20049;-49
2024/02/16 12:50:58;;;;;;;98.68;76.18;;;;;;;;;;4955263;28;20555;-48
2024/02/16 12:53:25;;;;;;;95.60;74.70;;;;;;;;;;4937087;28;20041;-49
2024/02/16 12:55:51;;;;;;;94.88;72.75;;;;;;;;;;4967969;28;20521;-50
2024/02/16 12:58:18;;;;;;;96.90;77.73;;;;;;;;;;4958414;28;20055;-52
2024/02/16 13:00:44;;;;;;;97.53;74.27;;;;;;;;;;4960422;28;20295;-52
2024/02/16 13:03:10;;;;;;;95.70;77.07;;;;;;;;;;4966914;28;20038;-48
2024/02/16 13:05:36;;;;;;;102.97;78.73;;;;;;;;;;4949593;28;20027;-49
2024/02/16 13:08:03;;;;;;;92.80;74.47;;;;;;;;;;4952696;28;20031;-52
2024/02/16 13:10:30;;;;;;;95.47;72.63;;;;;;;;;;4968308;28;20276;-52
2024/02/16 13:12:56;;;;;;;95.65;75.25;;;;;;;;;;4968142;28;20037;-48
2024/02/16 13:15:22;;;;;;;90.93;72.00;;;;;;;;;;4958689;28;20038;-50
2024/02/16 13:17:48;;;;;;;91.10;73.67;;;;;;;;;;4970038;28;20038;-49
2024/02/16 13:20:14;;;;;;;95.53;73.57;;;;;;;;;;4960427;28;20289;-52
2024/02/16 13:22:41;;;;;;;97.07;72.93;;;;;;;;;;4958600;28;20384;-51
2024/02/16 13:25:08;;;;;;;82.90;71.28;;;;;;;;;;4956729;28;20716;-52
2024/02/16 13:27:34;;;;;;;88.63;72.32;;;;;;;;;;4954984;28;20544;-52
2024/02/16 13:30:01;;;;;;;89.20;70.15;;;;;;;;;;4955505;28;20023;-48
2024/02/16 13:32:27;;;;;;;88.53;69.47;;;;;;;;;;4956073;28;20114;-48
2024/02/16 13:34:53;;;;;;;87.25;71.05;;;;;;;;;;4956185;28;20126;-47
2024/02/16 13:37:19;;;;;;;89.73;71.90;;;;;;;;;;4956208;28;20086;-47
2024/02/16 13:39:46;;;;;;;89.95;73.55;;;;;;;;;;4954843;28;20274;-48
2024/02/16 13:42:13;;;;;;;90.03;71.80;;;;;;;;;;4956618;28;20062;-48
2024/02/16 13:44:39;;;;;;;88.03;63.83;;;;;;;;;;4956372;29;20066;-48
2024/02/16 13:47:06;;;;;;;90.78;71.22;;;;;;;;;;4957511;28;20500;-48
2024/02/16 13:49:32;;;;;;;91.22;71.03;;;;;;;;;;4956512;28;20035;-51
2024/02/16 13:51:58;;;;;;;92.45;72.00;;;;;;;;;;4957780;28;20039;-49
2024/02/16 13:54:25;;;;;;;96.20;72.13;;;;;;;;;;4957797;28;20039;-46
2024/02/16 13:56:52;;;;;;;93.15;73.72;;;;;;;;;;4957342;29;20074;-51
2024/02/16 13:59:19;;;;;;;85.22;68.90;;;;;;;;;;4957394;28;20031;-46
2024/02/16 14:01:45;;;;;;;88.70;69.53;;;;;;;;;;4956077;28;20130;-48
2024/02/16 14:04:13;;;;;;;90.55;70.72;;;;;;;;;;4957273;28;20544;-47
2024/02/16 14:06:39;;;;;;;87.22;68.63;;;;;;;;;;4955894;29;20035;-48
2024/02/16 14:09:08;;;;;;;86.97;70.40;;;;;;;;;;4957152;28;20481;-52
2024/02/16 14:11:37;;;;;;;87.10;69.63;;;;;;;;;;4956673;28;20027;-53
2024/02/16 14:14:05;;;;;;;92.40;71.28;;;;;;;;;;4955216;29;20055;-50
2024/02/16 14:16:32;;;;;;;90.13;70.93;;;;;;;;;;4955113;28;20031;-52